Time;durP1;ratioP1;P1;durP2;ratioP2;P2;SDS_P1;SDS_P2;PMS_P1;PMS_P2;Temp;Humidity;BMP_temperature;BMP_pressure;BME280_temperature;BME280_humidity;BME280_pressure;Samples;Min_cycle;Max_cycle;Signal;HPM_P1;HPM_P2
2023/02/10 00:01:53;;;;;;;;;;;;;;;-0.13;59.86;100450.04;135552;1279;22525;-62
2023/02/10 00:04:56;;;;;;;41.50;13.10;;;;;;;-0.11;60.19;100444.03;135608;1279;22544;-63
2023/02/10 00:07:58;;;;;;;41.70;13.80;;;;;;;-0.08;60.02;100441.83;135600;1279;22538;-64
2023/02/10 00:11:00;;;;;;;38.00;12.50;;;;;;;-0.02;60.27;100450.13;135593;1279;22549;-61
2023/02/10 00:14:03;;;;;;;36.80;13.00;;;;;;;-0.06;60.48;100453.52;135584;1279;22608;-61
2023/02/10 00:17:05;;;;;;;;;;;;;;;-0.14;61.03;100457.08;135634;1279;22539;-60
2023/02/10 00:20:08;;;;;;;39.60;14.00;;;;;;;-0.16;61.40;100458.27;135663;1279;22572;-64
2023/02/10 00:23:10;;;;;;;41.60;14.70;;;;;;;-0.17;61.41;100465.49;135612;1279;22801;-61
2023/02/10 00:26:12;;;;;;;37.60;13.00;;;;;;;-0.15;61.18;100470.14;135487;1279;24156;-62
2023/02/10 00:29:15;;;;;;;37.00;13.90;;;;;;;-0.16;61.73;100462.73;135617;1279;22575;-62
2023/02/10 00:32:17;;;;;;;40.00;14.70;;;;;;;-0.16;62.02;100468.58;135569;1279;22553;-61
2023/02/10 00:35:20;;;;;;;;;;;;;;;-0.20;62.02;100467.87;135651;1279;22523;-62
2023/02/10 00:38:22;;;;;;;40.30;15.30;;;;;;;-0.26;62.21;100470.73;135567;1279;22561;-62
2023/02/10 00:41:24;;;;;;;39.10;14.10;;;;;;;-0.24;62.40;100468.34;135605;1279;22565;-63
2023/02/10 00:44:27;;;;;;;39.40;14.00;;;;;;;-0.22;62.35;100468.70;135634;1279;24118;-63
2023/02/10 00:47:29;;;;;;;39.30;13.90;;;;;;;-0.16;62.18;100464.45;135570;1279;24388;-62
2023/02/10 00:50:32;;;;;;;43.20;15.30;;;;;;;-0.18;62.48;100465.98;135623;1260;22562;-61
2023/02/10 00:53:34;;;;;;;46.80;16.70;;;;;;;-0.23;62.62;100462.67;135556;1279;22561;-61
2023/02/10 00:56:36;;;;;;;39.60;14.70;;;;;;;-0.25;62.67;100460.95;135544;1279;25457;-61
2023/02/10 00:59:39;;;;;;;37.90;13.90;;;;;;;-0.32;63.12;100450.55;135540;1279;22540;-63
2023/02/10 01:02:41;;;;;;;40.10;14.00;;;;;;;-0.36;63.50;100452.06;135580;1279;22546;-61
2023/02/10 01:05:44;;;;;;;39.10;14.40;;;;;;;-0.39;63.46;100445.34;135645;1279;23094;-61
2023/02/10 01:08:47;;;;;;;40.50;14.50;;;;;;;-0.33;63.45;100442.45;135623;1279;22541;-60
2023/02/10 01:11:49;;;;;;;42.90;15.40;;;;;;;-0.24;63.35;100439.44;135583;1279;22565;-61
2023/02/10 01:14:51;;;;;;;39.30;14.40;;;;;;;-0.31;63.64;100440.77;135605;1279;22544;-61
2023/02/10 01:17:54;;;;;;;44.20;14.50;;;;;;;-0.33;63.96;100439.02;135576;1279;22593;-60
2023/02/10 01:20:56;;;;;;;42.20;14.70;;;;;;;-0.38;64.20;100441.21;135615;1279;22554;-63
2023/02/10 01:23:59;;;;;;;36.70;13.20;;;;;;;-0.36;63.86;100439.86;135526;1279;22532;-62
2023/02/10 01:27:01;;;;;;;35.90;13.30;;;;;;;-0.30;63.51;100433.38;135555;1279;22544;-62
2023/02/10 01:30:03;;;;;;;39.10;14.40;;;;;;;-0.35;63.66;100428.70;135600;1279;25268;-62
2023/02/10 01:33:06;;;;;;;41.30;15.40;;;;;;;-0.41;63.76;100422.96;135590;1279;22540;-63
2023/02/10 01:36:08;;;;;;;42.50;16.70;;;;;;;-0.43;63.89;100419.69;135554;1279;22562;-62
2023/02/10 01:39:10;;;;;;;40.60;15.70;;;;;;;-0.37;63.76;100420.08;135560;1279;23235;-62
2023/02/10 01:42:13;;;;;;;37.40;13.80;;;;;;;-0.39;63.73;100416.45;135619;1279;22532;-62
2023/02/10 01:45:15;;;;;;;38.90;14.60;;;;;;;-0.39;63.85;100411.65;135578;1279;22543;-63
2023/02/10 01:48:18;;;;;;;39.90;15.60;;;;;;;-0.38;63.96;100401.52;135612;1279;22548;-64
2023/02/10 01:51:20;;;;;;;;;;;;;;;-0.38;63.94;100398.77;135580;1279;22537;-61
2023/02/10 01:54:22;;;;;;;39.30;13.80;;;;;;;-0.39;64.16;100407.17;135632;1279;22560;-62
2023/02/10 01:57:25;;;;;;;39.50;13.70;;;;;;;-0.38;64.51;100414.41;135572;1279;22596;-62
2023/02/10 02:00:27;;;;;;;41.30;14.40;;;;;;;-0.36;64.33;100414.59;135556;1279;25484;-60
2023/02/10 02:03:30;;;;;;;38.60;13.80;;;;;;;-0.38;64.29;100412.00;135557;1279;22545;-61
2023/02/10 02:06:32;;;;;;;38.30;13.80;;;;;;;-0.39;64.20;100416.80;135552;1279;23890;-60
2023/02/10 02:09:34;;;;;;;;;;;;;;;-0.41;64.23;100410.26;135488;1270;22520;-62
2023/02/10 02:12:37;;;;;;;38.20;13.90;;;;;;;-0.52;64.41;100399.83;135594;1255;24199;-63
2023/02/10 02:15:39;;;;;;;;;;;;;;;-0.51;64.59;100395.71;135557;1279;24376;-61
2023/02/10 02:18:42;;;;;;;36.30;12.30;;;;;;;-0.50;64.67;100396.07;135597;1279;22560;-61
2023/02/10 02:21:44;;;;;;;38.90;14.50;;;;;;;-0.51;64.85;100389.88;135603;1279;22586;-61
2023/02/10 02:24:46;;;;;;;38.90;13.10;;;;;;;-0.47;64.60;100387.33;135592;1279;22563;-62
2023/02/10 02:27:49;;;;;;;37.50;13.30;;;;;;;-0.41;64.46;100390.14;135565;1279;22580;-62
2023/02/10 02:30:51;;;;;;;34.30;12.50;;;;;;;-0.41;64.48;100389.95;135587;1279;22598;-62
2023/02/10 02:33:54;;;;;;;36.70;13.60;;;;;;;-0.47;64.69;100397.13;135603;1279;22532;-61
2023/02/10 02:36:56;;;;;;;37.60;14.00;;;;;;;-0.52;64.71;100401.55;135569;1260;22572;-62
2023/02/10 02:39:58;;;;;;;36.40;13.10;;;;;;;-0.50;64.65;100398.83;135610;1279;22586;-61
2023/02/10 02:43:01;;;;;;;38.60;13.20;;;;;;;-0.48;64.67;100392.99;135474;1279;143519;-63
2023/02/10 02:46:04;;;;;;;38.30;14.80;;;;;;;-0.49;64.60;100389.89;135624;1279;22555;-62
2023/02/10 02:49:06;;;;;;;38.80;14.20;;;;;;;-0.57;64.66;100392.06;135597;1279;22623;-61
2023/02/10 02:52:08;;;;;;;36.20;14.30;;;;;;;-0.62;64.56;100390.63;135630;1279;25309;-62
2023/02/10 02:55:11;;;;;;;38.20;13.40;;;;;;;-0.70;64.86;100396.23;135571;1279;22551;-62
2023/02/10 02:58:13;;;;;;;;;;;;;;;-0.62;64.71;100408.67;135620;1279;22559;-62
2023/02/10 03:01:16;;;;;;;41.10;14.80;;;;;;;-0.58;64.56;100410.44;135623;1279;22763;-60
2023/02/10 03:04:18;;;;;;;37.00;13.40;;;;;;;-0.58;64.56;100411.28;135641;1279;22571;-61
2023/02/10 03:07:20;;;;;;;;;;;;;;;-0.70;64.73;100415.30;135582;1256;22517;-61
2023/02/10 03:10:23;;;;;;;36.40;13.90;;;;;;;-0.75;64.90;100410.08;135616;1279;22557;-61
2023/02/10 03:13:25;;;;;;;41.50;14.00;;;;;;;-0.80;64.99;100407.64;135589;1279;22544;-62
2023/02/10 03:16:28;;;;;;;;;;;;;;;-0.82;64.90;100412.42;135648;1279;22536;-65
2023/02/10 03:19:30;;;;;;;34.40;12.10;;;;;;;-0.88;64.82;100408.73;135576;1279;22533;-65
2023/02/10 03:22:33;;;;;;;41.00;15.00;;;;;;;-0.92;65.12;100412.31;135637;1279;22533;-61
2023/02/10 03:25:35;;;;;;;39.40;14.60;;;;;;;-0.89;64.88;100405.13;135596;1279;22554;-60
2023/02/10 03:28:37;;;;;;;40.50;15.80;;;;;;;-0.99;65.17;100404.67;135602;1279;22542;-61
2023/02/10 03:31:40;;;;;;;42.20;15.30;;;;;;;-1.06;65.40;100403.55;135551;1279;22542;-61
2023/02/10 03:34:43;;;;;;;42.50;16.60;;;;;;;-1.04;65.33;100407.36;135624;1279;22545;-62
2023/02/10 03:37:45;;;;;;;41.70;15.70;;;;;;;-1.01;65.19;100415.64;135574;1261;22546;-61
2023/02/10 03:40:48;;;;;;;40.50;15.60;;;;;;;-1.01;65.00;100420.46;135604;1279;22797;-61
2023/02/10 03:43:50;;;;;;;39.60;14.40;;;;;;;-1.05;65.11;100425.56;135594;1279;22578;-62
2023/02/10 03:46:52;;;;;;;38.60;14.30;;;;;;;-1.12;65.39;100426.16;135627;1279;22550;-62
2023/02/10 03:49:55;;;;;;;;;;;;;;;-1.19;65.63;100431.73;135642;1279;22517;-61
2023/02/10 03:52:57;;;;;;;43.00;14.20;;;;;;;-1.25;65.45;100432.01;135602;1279;22544;-62
2023/02/10 03:56:00;;;;;;;42.80;14.50;;;;;;;-1.36;66.01;100431.86;135587;1279;22545;-64
2023/02/10 03:59:02;;;;;;;37.60;13.40;;;;;;;-1.42;66.03;100436.77;135583;1279;22558;-63
2023/02/10 04:02:04;;;;;;;38.20;15.10;;;;;;;-1.42;66.10;100439.51;135575;1274;25505;-61
2023/02/10 04:05:07;;;;;;;39.80;14.20;;;;;;;-1.50;66.18;100443.34;135599;1279;22540;-63
2023/02/10 04:08:09;;;;;;;39.00;14.90;;;;;;;-1.53;66.40;100453.23;135565;1261;22569;-63
2023/02/10 04:11:13;;;;;;;44.00;15.20;;;;;;;-1.58;66.46;100455.07;135601;1279;23734;-63
2023/02/10 04:14:15;;;;;;;43.20;16.70;;;;;;;-1.64;66.43;100457.56;135593;1279;22775;-62
2023/02/10 04:17:17;;;;;;;43.30;17.20;;;;;;;-1.61;65.92;100454.52;135598;1279;22536;-61
2023/02/10 04:20:20;;;;;;;44.00;15.90;;;;;;;-1.69;65.94;100449.05;135602;1279;22535;-61
2023/02/10 04:23:22;;;;;;;42.00;15.50;;;;;;;-1.73;66.09;100444.20;135596;1279;22551;-64
2023/02/10 04:26:24;;;;;;;40.70;15.60;;;;;;;-1.72;66.33;100438.39;135599;1279;22550;-61
2023/02/10 04:29:27;;;;;;;39.20;15.00;;;;;;;-1.77;66.35;100437.13;135583;1261;22558;-61
2023/02/10 04:32:29;;;;;;;43.80;15.60;;;;;;;-1.79;66.58;100433.30;135596;1279;22715;-64
2023/02/10 04:35:31;;;;;;;;;;;;;;;-1.85;66.80;100433.92;135617;1279;22510;-61
2023/02/10 04:38:34;;;;;;;43.40;16.00;;;;;;;-1.89;66.86;100429.56;135610;1279;22599;-62
2023/02/10 04:41:37;;;;;;;;;;;;;;;-2.00;67.25;100428.89;135606;1279;22522;-62
2023/02/10 04:44:39;;;;;;;38.40;13.20;;;;;;;-2.07;67.81;100434.94;135589;1279;22557;-63
2023/02/10 04:47:42;;;;;;;40.30;14.40;;;;;;;-2.13;68.31;100431.25;135599;1279;22532;-63
2023/02/10 04:50:44;;;;;;;43.90;14.20;;;;;;;-2.07;68.21;100432.38;135544;1279;22529;-62
2023/02/10 04:53:47;;;;;;;44.00;16.40;;;;;;;-2.07;68.28;100437.86;135594;1279;22542;-61
2023/02/10 04:56:49;;;;;;;45.00;16.80;;;;;;;-2.07;68.30;100438.38;135566;1279;24341;-61
2023/02/10 04:59:52;;;;;;;49.80;18.30;;;;;;;-2.10;68.32;100437.65;135617;1279;22587;-61
2023/02/10 05:02:54;;;;;;;44.20;16.10;;;;;;;-2.09;68.27;100432.68;135602;1279;22632;-61
2023/02/10 05:05:57;;;;;;;41.40;15.10;;;;;;;-2.13;68.45;100426.61;135579;1279;22534;-62
2023/02/10 05:09:00;;;;;;;41.80;15.50;;;;;;;-2.17;69.09;100425.19;135598;1256;24227;-60
2023/02/10 05:12:02;;;;;;;;;;;;;;;-2.12;68.98;100426.46;135561;1279;22536;-61
2023/02/10 05:15:05;;;;;;;41.30;16.00;;;;;;;-2.07;69.15;100428.08;135570;1279;24478;-60
2023/02/10 05:18:07;;;;;;;;;;;;;;;-2.02;68.84;100430.22;135600;1279;22763;-62
2023/02/10 05:21:10;;;;;;;42.20;14.30;;;;;;;-2.05;68.80;100430.16;135578;1279;25370;-62
2023/02/10 05:24:13;;;;;;;;;;;;;;;-2.08;68.77;100432.02;135574;1279;22530;-61
2023/02/10 05:27:15;;;;;;;41.10;15.90;;;;;;;-2.16;69.00;100434.98;135458;1279;24227;-62
2023/02/10 05:30:18;;;;;;;43.20;16.80;;;;;;;-2.12;69.49;100440.18;135580;1279;24417;-63
2023/02/10 05:33:20;;;;;;;43.90;16.40;;;;;;;-2.14;69.01;100442.38;135552;1279;22536;-63
2023/02/10 05:36:22;;;;;;;39.30;14.30;;;;;;;-2.17;69.22;100443.17;135552;1279;22539;-62
2023/02/10 05:39:25;;;;;;;;;;;;;;;-2.22;69.66;100444.98;135579;1279;24248;-60
2023/02/10 05:42:28;;;;;;;;;;;;;;;-2.11;69.43;100444.13;135529;1279;22627;-60
2023/02/10 05:45:30;;;;;;;44.20;15.30;;;;;;;-2.09;69.41;100446.41;135575;1279;24375;-61
2023/02/10 05:48:32;;;;;;;41.50;16.30;;;;;;;-2.04;69.41;100443.73;135527;1279;22549;-64
2023/02/10 05:51:35;;;;;;;47.60;18.50;;;;;;;-2.06;69.00;100435.98;135567;1279;22548;-61
2023/02/10 05:54:37;;;;;;;40.60;14.90;;;;;;;-2.06;69.22;100439.23;135527;1279;23137;-62
2023/02/10 05:57:40;;;;;;;44.90;16.80;;;;;;;-2.04;69.07;100439.28;135559;1279;22526;-61
2023/02/10 06:00:42;;;;;;;40.00;14.70;;;;;;;-2.12;69.10;100442.91;135562;1279;22544;-63
2023/02/10 06:03:44;;;;;;;;;;;;;;;-2.27;70.08;100446.44;135549;1262;22517;-62
2023/02/10 06:06:47;;;;;;;44.40;16.10;;;;;;;-2.29;70.41;100449.65;135567;1279;22826;-62
2023/02/10 06:09:49;;;;;;;43.80;15.50;;;;;;;-2.31;70.49;100451.52;135535;1279;22559;-60
2023/02/10 06:12:51;;;;;;;42.20;14.40;;;;;;;-2.22;70.25;100461.26;135550;1279;22663;-60
2023/02/10 06:15:54;;;;;;;43.50;16.40;;;;;;;-2.16;69.96;100458.62;135543;1279;22566;-62
2023/02/10 06:18:56;;;;;;;;;;;;;;;-2.07;69.71;100462.20;135560;1260;22525;-61
2023/02/10 06:21:59;;;;;;;39.80;14.30;;;;;;;-1.97;69.27;100464.26;135573;1279;22563;-61
2023/02/10 06:25:01;;;;;;;;;;;;;;;-1.87;68.85;100461.33;135594;1279;22513;-60
2023/02/10 06:28:07;;;;;;;41.00;15.50;;;;;;;-1.77;68.54;100466.44;135510;1279;22547;-61
2023/02/10 06:31:10;;;;;;;40.80;16.20;;;;;;;-1.71;68.22;100469.96;135534;1279;25508;-61
2023/02/10 06:34:12;;;;;;;44.60;16.20;;;;;;;-1.55;67.50;100474.33;135527;1279;22612;-61
2023/02/10 06:37:15;;;;;;;;;;;;;;;-1.52;67.32;100479.69;135564;1279;22536;-61
2023/02/10 06:40:17;;;;;;;40.00;15.30;;;;;;;-1.50;67.17;100478.51;135577;1279;22550;-63
2023/02/10 06:43:19;;;;;;;42.90;14.70;;;;;;;-1.48;67.14;100478.39;135561;1279;22557;-62
2023/02/10 06:46:22;;;;;;;;;;;;;;;-1.42;66.96;100477.25;135568;1279;22509;-64
2023/02/10 06:49:24;;;;;;;43.60;17.20;;;;;;;-1.35;66.78;100475.14;135584;1279;22585;-62
2023/02/10 06:52:26;;;;;;;44.80;16.30;;;;;;;-1.29;67.13;100470.05;135552;1279;25330;-62
2023/02/10 06:55:29;;;;;;;39.20;15.50;;;;;;;-1.26;67.04;100462.88;135551;1279;22612;-62
2023/02/10 06:58:32;;;;;;;45.10;16.50;;;;;;;-1.15;66.99;100463.56;135573;1260;24367;-62
2023/02/10 07:01:34;;;;;;;;;;;;;;;-1.00;66.81;100467.69;135626;1279;22510;-62
2023/02/10 07:04:38;;;;;;;45.40;16.30;;;;;;;-0.84;65.90;100467.19;135613;1279;23116;-62
2023/02/10 07:07:41;;;;;;;43.50;16.40;;;;;;;-0.77;65.47;100464.70;135517;1279;22539;-63
2023/02/10 07:10:43;;;;;;;;;;;;;;;-0.64;65.39;100459.34;135585;1279;22530;-62
2023/02/10 07:13:45;;;;;;;46.50;17.40;;;;;;;-0.50;65.07;100460.50;135586;1279;22546;-60
2023/02/10 07:16:48;;;;;;;44.00;17.70;;;;;;;-0.33;64.41;100464.80;135584;1279;23891;-61
2023/02/10 07:19:50;;;;;;;;;;;;;;;-0.13;64.07;100469.65;135598;1279;22530;-62
2023/02/10 07:22:53;;;;;;;39.90;15.90;;;;;;;0.06;62.75;100478.57;135622;1279;22579;-61
2023/02/10 07:25:55;;;;;;;47.20;19.30;;;;;;;0.17;61.63;100484.17;135609;1279;22554;-60
2023/02/10 07:28:57;;;;;;;45.50;17.70;;;;;;;0.30;62.27;100489.09;135562;1279;22546;-62
2023/02/10 07:32:00;;;;;;;45.00;17.70;;;;;;;0.44;61.65;100497.96;135581;1279;22552;-61
2023/02/10 07:35:02;;;;;;;43.80;17.20;;;;;;;0.53;61.12;100506.80;135607;1279;22542;-62
2023/02/10 07:38:05;;;;;;;38.00;14.30;;;;;;;0.75;61.10;100511.77;135586;1256;22532;-61
2023/02/10 07:41:07;;;;;;;43.30;16.70;;;;;;;0.83;59.70;100508.03;135623;1262;22536;-61
2023/02/10 07:44:10;;;;;;;40.60;16.00;;;;;;;1.07;59.96;100516.94;135553;1279;22532;-61
2023/02/10 07:47:12;;;;;;;39.80;15.40;;;;;;;1.17;59.47;100512.85;135587;1279;22532;-62
2023/02/10 07:50:15;;;;;;;40.40;16.30;;;;;;;1.22;58.49;100519.60;135574;1279;22543;-62
2023/02/10 07:53:17;;;;;;;39.40;15.40;;;;;;;1.32;58.45;100501.71;135573;1279;22577;-62
2023/02/10 07:56:19;;;;;;;38.80;15.90;;;;;;;1.34;58.16;100508.27;135565;1279;22536;-62
2023/02/10 07:59:22;;;;;;;40.80;15.60;;;;;;;1.21;58.17;100509.41;135586;1279;22523;-62
2023/02/10 08:02:24;;;;;;;42.30;16.90;;;;;;;1.08;58.70;100512.29;135577;1279;22534;-62
2023/02/10 08:05:28;;;;;;;45.20;17.10;;;;;;;1.11;59.14;100516.78;135502;1261;23427;-62
2023/02/10 08:08:30;;;;;;;44.70;17.40;;;;;;;1.07;58.72;100520.56;135581;1279;22532;-62
2023/02/10 08:11:32;;;;;;;42.30;17.20;;;;;;;1.13;59.02;100522.48;135575;1279;25263;-62
2023/02/10 08:14:35;;;;;;;45.10;18.80;;;;;;;1.18;58.75;100532.33;135545;1279;22570;-62
2023/02/10 08:17:38;;;;;;;40.60;15.70;;;;;;;1.21;58.74;100525.11;135569;1279;22542;-61
2023/02/10 08:20:41;;;;;;;46.00;18.00;;;;;;;1.54;57.91;100522.11;135546;1279;25426;-62
2023/02/10 08:23:45;;;;;;;42.90;16.50;;;;;;;1.82;58.14;100516.15;135583;1279;22532;-61
2023/02/10 08:26:47;;;;;;;44.90;17.20;;;;;;;2.06;57.32;100508.59;135589;1279;22536;-62
2023/02/10 08:29:49;;;;;;;44.10;16.60;;;;;;;2.06;57.56;100514.63;135576;1279;22546;-62
2023/02/10 08:32:52;;;;;;;41.40;16.50;;;;;;;2.03;56.85;100518.26;135525;1279;23930;-61
2023/02/10 08:35:54;;;;;;;42.30;17.70;;;;;;;2.09;56.86;100519.64;135511;1279;22545;-62
2023/02/10 08:38:57;;;;;;;44.10;19.30;;;;;;;2.45;57.24;100510.83;135480;1263;22590;-61
2023/02/10 08:41:59;;;;;;;40.30;17.40;;;;;;;3.01;57.09;100515.90;135512;1256;22536;-62
2023/02/10 08:45:01;;;;;;;42.10;16.70;;;;;;;3.32;54.83;100517.55;135478;1279;22677;-65
2023/02/10 08:48:04;;;;;;;44.40;19.00;;;;;;;3.06;55.24;100509.33;135543;1279;22541;-64
2023/02/10 08:51:06;;;;;;;41.40;16.10;;;;;;;3.24;56.04;100498.20;135592;1279;22558;-63
2023/02/10 08:54:09;;;;;;;40.50;17.20;;;;;;;3.36;55.41;100497.98;135556;1279;24305;-61
2023/02/10 08:57:11;;;;;;;41.00;18.00;;;;;;;3.30;55.09;100504.59;135557;1279;22533;-63
2023/02/10 09:00:14;;;;;;;39.90;15.60;;;;;;;3.16;56.22;100501.52;135591;1279;22589;-62
2023/02/10 09:03:16;;;;;;;40.20;15.60;;;;;;;3.04;55.26;100505.36;135571;1279;22555;-62
2023/02/10 09:06:18;;;;;;;38.90;16.10;;;;;;;2.76;56.14;100495.59;135509;1279;22534;-61
2023/02/10 09:09:22;;;;;;;41.20;16.50;;;;;;;2.50;56.76;100512.21;135586;1279;22555;-62
2023/02/10 09:12:24;;;;;;;44.10;17.90;;;;;;;2.40;57.54;100505.66;135547;1279;22598;-63
2023/02/10 09:15:26;;;;;;;42.10;15.60;;;;;;;2.42;57.87;100513.79;135525;1279;22732;-61
2023/02/10 09:18:29;;;;;;;45.10;18.90;;;;;;;2.37;58.39;100516.19;135584;1279;22475;-62
2023/02/10 09:21:31;;;;;;;44.30;18.00;;;;;;;2.43;57.52;100519.48;135583;1279;22571;-60
2023/02/10 09:24:34;;;;;;;43.30;16.90;;;;;;;2.32;57.41;100529.83;135607;1279;22584;-60
2023/02/10 09:27:37;;;;;;;43.80;17.90;;;;;;;2.29;58.22;100524.48;135540;1279;25429;-60
2023/02/10 09:30:39;;;;;;;39.20;16.60;;;;;;;2.38;57.45;100536.92;135593;1279;22542;-60
2023/02/10 09:33:42;;;;;;;43.40;18.50;;;;;;;2.49;57.61;100541.75;135587;1279;22533;-60
2023/02/10 09:36:44;;;;;;;39.20;16.60;;;;;;;2.50;57.80;100552.63;135560;1279;22546;-63
2023/02/10 09:39:47;;;;;;;45.00;17.70;;;;;;;2.55;58.27;100549.51;135593;1279;22540;-62
2023/02/10 09:42:49;;;;;;;40.30;15.40;;;;;;;2.57;57.72;100547.95;135566;1279;22614;-61
2023/02/10 09:45:51;;;;;;;41.20;18.00;;;;;;;2.62;58.88;100547.09;135589;1279;22616;-62
2023/02/10 09:48:54;;;;;;;46.70;17.40;;;;;;;2.68;58.25;100548.46;135603;1279;25394;-61
2023/02/10 09:51:56;;;;;;;44.80;17.90;;;;;;;2.60;58.63;100553.14;135572;1279;22565;-62
2023/02/10 09:54:58;;;;;;;48.00;19.40;;;;;;;2.61;58.87;100560.04;135563;1279;22536;-61
2023/02/10 09:58:01;;;;;;;42.20;16.50;;;;;;;2.60;58.57;100560.73;135572;1279;22656;-64
2023/02/10 10:01:05;;;;;;;41.30;18.50;;;;;;;2.48;58.65;100550.38;135603;1279;22550;-64
2023/02/10 10:04:07;;;;;;;47.80;19.30;;;;;;;2.53;60.05;100542.95;135596;1262;22622;-62
2023/02/10 10:07:09;;;;;;;48.10;19.20;;;;;;;2.47;59.79;100553.83;135558;1279;22500;-64
2023/02/10 10:10:12;;;;;;;45.60;18.20;;;;;;;2.49;60.27;100554.52;135593;1279;22648;-63
2023/02/10 10:13:14;;;;;;;44.60;18.50;;;;;;;2.54;60.49;100555.39;135595;1279;22539;-62
2023/02/10 10:16:17;;;;;;;46.00;19.80;;;;;;;2.61;60.98;100549.34;135544;1279;22542;-62
2023/02/10 10:19:19;;;;;;;47.30;20.40;;;;;;;2.91;60.71;100546.88;135569;1279;22539;-62
2023/02/10 10:22:22;;;;;;;46.50;17.80;;;;;;;3.06;59.73;100547.52;135567;1279;22532;-62
2023/02/10 10:25:25;;;;;;;46.00;17.90;;;;;;;3.03;59.41;100539.58;135587;1279;22573;-63
2023/02/10 10:28:27;;;;;;;43.30;17.50;;;;;;;3.09;59.60;100535.08;135578;1279;22561;-61
2023/02/10 10:31:30;;;;;;;47.10;20.50;;;;;;;3.39;59.72;100527.53;135613;1279;22549;-62
2023/02/10 10:34:32;;;;;;;47.00;19.70;;;;;;;3.57;59.76;100521.55;135525;1279;22542;-64
2023/02/10 10:37:35;;;;;;;42.70;17.40;;;;;;;3.50;59.55;100529.21;135586;1279;22550;-62
2023/02/10 10:40:37;;;;;;;41.30;16.70;;;;;;;3.18;59.68;100536.08;135565;1279;22558;-61
2023/02/10 10:43:40;;;;;;;44.20;19.60;;;;;;;2.99;60.68;100535.27;135600;1279;22722;-61
2023/02/10 10:46:43;;;;;;;46.80;19.90;;;;;;;2.98;62.02;100526.11;135558;1279;22657;-62
2023/02/10 10:49:45;;;;;;;45.50;19.70;;;;;;;3.04;62.04;100523.52;135587;1279;22559;-63
2023/02/10 10:52:51;;;;;;;45.30;20.10;;;;;;;3.02;61.34;100514.87;135574;1279;22563;-62
2023/02/10 10:55:53;;;;;;;46.50;19.70;;;;;;;3.02;62.46;100512.63;135536;1279;24510;-61
2023/02/10 10:58:55;;;;;;;46.60;19.90;;;;;;;3.02;62.71;100513.49;135579;1279;22550;-62
2023/02/10 11:01:58;;;;;;;46.70;20.50;;;;;;;3.07;62.81;100505.86;135555;1279;22532;-61
2023/02/10 11:05:00;;;;;;;49.70;19.60;;;;;;;3.20;62.53;100490.45;135544;1279;22603;-62
2023/02/10 11:08:03;;;;;;;43.80;20.10;;;;;;;3.23;62.51;100502.00;135604;1279;22530;-64
2023/02/10 11:11:09;;;;;;;49.60;20.70;;;;;;;3.25;63.13;100493.70;135601;1279;22543;-62
2023/02/10 11:14:12;;;;;;;46.40;19.90;;;;;;;3.40;62.98;100499.34;135596;1279;25458;-63
2023/02/10 11:17:14;;;;;;;47.70;19.90;;;;;;;3.43;62.37;100497.94;135544;1279;22536;-64
2023/02/10 11:20:16;;;;;;;47.80;19.70;;;;;;;3.42;62.21;100500.71;135557;1279;22530;-63
2023/02/10 11:23:19;;;;;;;;;;;;;;;3.33;62.50;100494.52;135601;1279;22531;-62
2023/02/10 11:26:22;;;;;;;48.30;19.90;;;;;;;3.36;62.84;100499.36;135579;1279;22537;-62
2023/02/10 11:29:24;;;;;;;49.60;20.20;;;;;;;3.36;63.19;100501.09;135619;1279;22546;-62
2023/02/10 11:32:26;;;;;;;45.50;18.90;;;;;;;3.37;63.30;100509.04;135629;1279;22559;-65
2023/02/10 11:35:30;;;;;;;47.50;20.50;;;;;;;3.48;62.78;100512.26;135578;1279;22650;-61
2023/02/10 11:38:32;;;;;;;49.30;20.00;;;;;;;3.53;63.55;100502.56;135584;1279;22677;-63
2023/02/10 11:41:35;;;;;;;46.80;18.80;;;;;;;3.55;63.52;100499.61;135552;1263;22559;-64
2023/02/10 11:44:37;;;;;;;49.80;21.00;;;;;;;3.51;63.70;100512.25;135598;1279;22553;-61
2023/02/10 11:47:40;;;;;;;;;;;;;;;3.74;64.05;100516.45;135586;1279;22558;-61
2023/02/10 11:50:42;;;;;;;49.80;20.20;;;;;;;3.73;64.51;100515.61;135568;1279;22735;-62
2023/02/10 11:53:45;;;;;;;51.00;21.00;;;;;;;3.65;65.90;100515.81;135586;1279;22649;-62
2023/02/10 12:00:07;;;;;;;51.00;21.40;;;;;;;3.68;66.61;100513.20;135514;1279;22553;-60
2023/02/10 12:03:09;;;;;;;51.50;18.20;;;;;;;3.71;65.93;100517.67;135511;1279;22546;-62
2023/02/10 12:06:12;;;;;;;50.10;21.00;;;;;;;3.64;66.71;100521.54;135481;1270;22547;-64
2023/02/10 12:09:14;;;;;;;51.80;20.40;;;;;;;3.56;68.01;100522.61;135547;1279;22566;-65
2023/02/10 12:12:17;;;;;;;47.10;19.40;;;;;;;3.55;68.44;100521.74;135568;1279;22592;-62
2023/02/10 12:15:19;;;;;;;47.20;20.90;;;;;;;3.66;68.75;100519.44;135594;1279;22539;-62
2023/02/10 12:18:21;;;;;;;51.70;20.00;;;;;;;3.65;68.44;100515.81;135551;1279;22561;-62
2023/02/10 12:21:26;;;;;;;52.50;21.20;;;;;;;3.68;68.55;100524.45;135570;1279;22536;-63
2023/02/10 12:24:28;;;;;;;50.30;21.50;;;;;;;3.73;67.20;100525.11;135530;1279;25416;-61
2023/02/10 12:27:31;;;;;;;51.10;21.20;;;;;;;3.71;67.15;100519.41;135561;1279;22542;-61
2023/02/10 12:30:33;;;;;;;54.40;21.00;;;;;;;3.68;67.33;100519.44;135598;1279;22532;-64
2023/02/10 12:33:36;;;;;;;47.60;20.10;;;;;;;3.72;67.30;100524.26;135630;1279;25380;-60
2023/02/10 12:36:39;;;;;;;49.90;20.10;;;;;;;3.75;67.24;100526.48;135593;1270;22542;-62
2023/02/10 12:39:41;;;;;;;52.30;22.00;;;;;;;3.66;67.75;100522.39;135592;1279;24281;-61
2023/02/10 12:42:44;;;;;;;49.10;21.60;;;;;;;3.72;66.99;100521.30;135597;1279;22550;-62
2023/02/10 12:45:46;;;;;;;50.10;21.40;;;;;;;3.70;66.72;100523.22;135544;1261;24259;-63
2023/02/10 12:48:48;;;;;;;51.10;21.90;;;;;;;3.65;66.84;100524.99;135577;1279;22567;-63
2023/02/10 12:51:51;;;;;;;49.20;20.90;;;;;;;3.78;66.69;100523.88;135608;1279;22544;-62
2023/02/10 12:54:53;;;;;;;48.80;21.10;;;;;;;3.77;66.47;100529.41;135561;1279;22559;-62
2023/02/10 12:57:56;;;;;;;45.10;19.90;;;;;;;3.86;66.46;100533.69;135577;1279;22536;-61
2023/02/10 13:00:58;;;;;;;45.90;18.90;;;;;;;3.82;66.65;100531.29;135601;1279;22700;-62
2023/02/10 13:04:01;;;;;;;46.90;18.60;;;;;;;3.73;68.02;100524.77;135573;1279;22560;-61
2023/02/10 13:07:04;;;;;;;46.30;19.00;;;;;;;3.64;67.95;100526.89;135563;1279;22533;-62
2023/02/10 13:10:06;;;;;;;45.80;19.80;;;;;;;3.51;68.46;100514.66;135582;1279;22552;-62
2023/02/10 13:13:09;;;;;;;50.20;19.30;;;;;;;3.59;68.82;100502.70;135572;1279;22537;-63
2023/02/10 13:16:11;;;;;;;;;;;;;;;3.68;68.76;100504.04;135609;1279;22526;-63
2023/02/10 13:19:14;;;;;;;45.00;18.80;;;;;;;3.73;69.20;100501.41;135577;1279;22596;-63
2023/02/10 13:22:17;;;;;;;49.00;19.30;;;;;;;3.69;69.56;100501.59;135601;1279;24688;-62
2023/02/10 13:25:19;;;;;;;50.10;20.10;;;;;;;3.69;69.69;100504.54;135591;1279;24379;-64
2023/02/10 13:28:22;;;;;;;47.90;19.10;;;;;;;3.62;70.30;100511.32;135637;1279;22567;-61
2023/02/10 13:31:24;;;;;;;44.70;18.80;;;;;;;3.55;70.83;100515.52;135625;1279;22546;-65
2023/02/10 13:34:27;;;;;;;44.40;18.50;;;;;;;3.62;70.97;100513.41;135564;1279;22549;-63
2023/02/10 13:37:29;;;;;;;53.10;22.30;;;;;;;3.67;70.37;100514.77;135560;1279;22547;-62
2023/02/10 13:40:32;;;;;;;49.10;20.20;;;;;;;3.84;69.69;100516.39;135599;1279;22731;-62
2023/02/10 13:43:34;;;;;;;47.40;21.00;;;;;;;3.79;69.74;100520.57;135590;1279;22559;-63
2023/02/10 13:46:36;;;;;;;55.80;21.50;;;;;;;3.78;69.61;100523.52;135615;1279;22526;-62
2023/02/10 13:49:39;;;;;;;49.00;20.60;;;;;;;3.75;70.27;100526.48;135590;1279;25500;-61
2023/02/10 13:52:41;;;;;;;53.00;22.10;;;;;;;3.72;70.51;100518.02;135587;1279;25595;-62
2023/02/10 13:55:44;;;;;;;53.40;20.50;;;;;;;3.76;70.59;100511.94;135597;1270;22543;-63